sensor_id;sensor_type;location;lat;lon;timestamp;P1;durP1;ratioP1;P2;durP2;ratioP2
1507;SDS011;745;48.586;10.032;2023-02-01T00:04:07;6.43;;;5.13;;
1507;SDS011;745;48.586;10.032;2023-02-01T00:08:37;7.20;;;5.47;;
1507;SDS011;745;48.586;10.032;2023-02-01T00:13:07;6.60;;;4.87;;
1507;SDS011;745;48.586;10.032;2023-02-01T00:17:38;5.43;;;4.60;;
1507;SDS011;745;48.586;10.032;2023-02-01T00:22:08;6.50;;;5.00;;
1507;SDS011;745;48.586;10.032;2023-02-01T00:26:40;5.07;;;3.67;;
1507;SDS011;745;48.586;10.032;2023-02-01T00:31:11;4.67;;;3.87;;
1507;SDS011;745;48.586;10.032;2023-02-01T00:35:41;3.50;;;3.10;;
1507;SDS011;745;48.586;10.032;2023-02-01T00:40:12;8.90;;;3.40;;
1507;SDS011;745;48.586;10.032;2023-02-01T00:44:42;2.90;;;2.60;;
1507;SDS011;745;48.586;10.032;2023-02-01T00:49:13;5.27;;;3.27;;
1507;SDS011;745;48.586;10.032;2023-02-01T00:53:44;3.27;;;2.80;;
1507;SDS011;745;48.586;10.032;2023-02-01T00:58:15;5.33;;;4.30;;
1507;SDS011;745;48.586;10.032;2023-02-01T01:02:46;4.60;;;3.77;;
1507;SDS011;745;48.586;10.032;2023-02-01T01:07:16;3.20;;;2.90;;
1507;SDS011;745;48.586;10.032;2023-02-01T01:11:46;3.20;;;2.90;;
1507;SDS011;745;48.586;10.032;2023-02-01T01:16:17;2.60;;;2.30;;
1507;SDS011;745;48.586;10.032;2023-02-01T01:20:48;3.97;;;3.57;;
1507;SDS011;745;48.586;10.032;2023-02-01T01:25:18;3.53;;;2.80;;
1507;SDS011;745;48.586;10.032;2023-02-01T01:29:49;2.60;;;2.40;;
1507;SDS011;745;48.586;10.032;2023-02-01T01:34:20;2.50;;;2.27;;
1507;SDS011;745;48.586;10.032;2023-02-01T01:38:50;3.57;;;2.20;;
1507;SDS011;745;48.586;10.032;2023-02-01T01:43:21;3.27;;;1.97;;
1507;SDS011;745;48.586;10.032;2023-02-01T01:47:53;2.10;;;1.90;;
1507;SDS011;745;48.586;10.032;2023-02-01T01:52:28;2.20;;;2.07;;
1507;SDS011;745;48.586;10.032;2023-02-01T01:57:01;2.50;;;2.10;;
1507;SDS011;745;48.586;10.032;2023-02-01T02:01:33;1.97;;;1.77;;
1507;SDS011;745;48.586;10.032;2023-02-01T02:06:04;2.23;;;2.03;;
1507;SDS011;745;48.586;10.032;2023-02-01T02:10:37;2.00;;;1.90;;
1507;SDS011;745;48.586;10.032;2023-02-01T02:15:26;2.30;;;2.10;;
1507;SDS011;745;48.586;10.032;2023-02-01T02:35:02;5.43;;;1.83;;
1507;SDS011;745;48.586;10.032;2023-02-01T02:44:33;2.40;;;2.20;;
1507;SDS011;745;48.586;10.032;2023-02-01T02:49:27;2.13;;;1.93;;
1507;SDS011;745;48.586;10.032;2023-02-01T02:54:12;1.90;;;1.80;;
1507;SDS011;745;48.586;10.032;2023-02-01T02:59:03;1.93;;;1.80;;
1507;SDS011;745;48.586;10.032;2023-02-01T03:03:52;1.67;;;1.57;;
1507;SDS011;745;48.586;10.032;2023-02-01T03:08:52;2.30;;;2.10;;
1507;SDS011;745;48.586;10.032;2023-02-01T03:13:36;1.87;;;1.77;;
1507;SDS011;745;48.586;10.032;2023-02-01T03:18:13;2.00;;;1.90;;
1507;SDS011;745;48.586;10.032;2023-02-01T03:22:48;2.23;;;2.03;;
1507;SDS011;745;48.586;10.032;2023-02-01T03:27:24;2.63;;;2.10;;
1507;SDS011;745;48.586;10.032;2023-02-01T03:31:56;1.83;;;1.63;;
1507;SDS011;745;48.586;10.032;2023-02-01T03:36:31;1.90;;;1.70;;
1507;SDS011;745;48.586;10.032;2023-02-01T03:46:00;2.30;;;2.10;;
1507;SDS011;745;48.586;10.032;2023-02-01T03:50:33;2.30;;;2.10;;
1507;SDS011;745;48.586;10.032;2023-02-01T03:55:06;2.57;;;2.27;;
1507;SDS011;745;48.586;10.032;2023-02-01T03:59:38;2.60;;;2.37;;
1507;SDS011;745;48.586;10.032;2023-02-01T04:04:10;3.30;;;3.00;;
1507;SDS011;745;48.586;10.032;2023-02-01T04:08:50;2.90;;;2.70;;
1507;SDS011;745;48.586;10.032;2023-02-01T04:13:20;2.90;;;2.60;;
1507;SDS011;745;48.586;10.032;2023-02-01T04:17:50;2.60;;;2.30;;
1507;SDS011;745;48.586;10.032;2023-02-01T04:22:21;3.13;;;2.83;;
1507;SDS011;745;48.586;10.032;2023-02-01T04:26:51;2.93;;;2.70;;
1507;SDS011;745;48.586;10.032;2023-02-01T04:31:22;2.90;;;2.70;;
1507;SDS011;745;48.586;10.032;2023-02-01T04:35:55;3.30;;;3.00;;
1507;SDS011;745;48.586;10.032;2023-02-01T04:40:25;2.93;;;2.60;;
1507;SDS011;745;48.586;10.032;2023-02-01T04:44:55;2.60;;;2.30;;
1507;SDS011;745;48.586;10.032;2023-02-01T04:49:26;2.80;;;2.60;;
1507;SDS011;745;48.586;10.032;2023-02-01T04:53:56;3.20;;;3.00;;
1507;SDS011;745;48.586;10.032;2023-02-01T04:58:27;2.83;;;2.63;;
1507;SDS011;745;48.586;10.032;2023-02-01T05:02:57;5.03;;;2.63;;
1507;SDS011;745;48.586;10.032;2023-02-01T05:07:27;6.53;;;2.70;;
1507;SDS011;745;48.586;10.032;2023-02-01T05:11:58;2.80;;;2.60;;
1507;SDS011;745;48.586;10.032;2023-02-01T05:16:47;2.70;;;2.50;;
1507;SDS011;745;48.586;10.032;2023-02-01T05:21:18;2.93;;;2.73;;
1507;SDS011;745;48.586;10.032;2023-02-01T05:25:48;3.47;;;3.07;;
1507;SDS011;745;48.586;10.032;2023-02-01T05:30:19;3.10;;;2.90;;
1507;SDS011;745;48.586;10.032;2023-02-01T05:34:49;5.60;;;4.07;;
1507;SDS011;745;48.586;10.032;2023-02-01T05:39:20;6.20;;;4.80;;
1507;SDS011;745;48.586;10.032;2023-02-01T05:43:50;3.50;;;3.20;;
1507;SDS011;745;48.586;10.032;2023-02-01T05:48:20;3.07;;;2.83;;
1507;SDS011;745;48.586;10.032;2023-02-01T05:52:51;2.93;;;2.70;;
1507;SDS011;745;48.586;10.032;2023-02-01T05:57:21;3.63;;;3.30;;
1507;SDS011;745;48.586;10.032;2023-02-01T06:01:51;2.80;;;2.60;;
1507;SDS011;745;48.586;10.032;2023-02-01T06:06:22;3.10;;;2.87;;
1507;SDS011;745;48.586;10.032;2023-02-01T06:11:03;3.13;;;2.80;;
1507;SDS011;745;48.586;10.032;2023-02-01T06:15:34;5.70;;;2.73;;
1507;SDS011;745;48.586;10.032;2023-02-01T06:20:05;2.53;;;2.33;;
1507;SDS011;745;48.586;10.032;2023-02-01T06:24:36;3.70;;;3.10;;
1507;SDS011;745;48.586;10.032;2023-02-01T06:29:07;2.40;;;2.20;;
1507;SDS011;745;48.586;10.032;2023-02-01T06:33:39;2.47;;;2.27;;
1507;SDS011;745;48.586;10.032;2023-02-01T06:38:11;2.27;;;2.07;;
1507;SDS011;745;48.586;10.032;2023-02-01T06:42:41;2.33;;;2.13;;
1507;SDS011;745;48.586;10.032;2023-02-01T06:47:11;2.50;;;2.30;;
1507;SDS011;745;48.586;10.032;2023-02-01T06:51:42;3.40;;;2.23;;
1507;SDS011;745;48.586;10.032;2023-02-01T06:56:12;5.10;;;2.83;;
1507;SDS011;745;48.586;10.032;2023-02-01T07:00:42;2.00;;;1.90;;
1507;SDS011;745;48.586;10.032;2023-02-01T07:05:13;3.30;;;2.30;;
1507;SDS011;745;48.586;10.032;2023-02-01T07:09:43;2.47;;;2.27;;
1507;SDS011;745;48.586;10.032;2023-02-01T07:14:14;4.43;;;2.37;;
1507;SDS011;745;48.586;10.032;2023-02-01T07:18:44;4.60;;;2.50;;
1507;SDS011;745;48.586;10.032;2023-02-01T07:23:15;2.90;;;2.60;;
1507;SDS011;745;48.586;10.032;2023-02-01T07:27:45;3.13;;;2.57;;
1507;SDS011;745;48.586;10.032;2023-02-01T07:32:16;5.43;;;3.37;;
1507;SDS011;745;48.586;10.032;2023-02-01T07:36:47;5.63;;;3.87;;
1507;SDS011;745;48.586;10.032;2023-02-01T07:41:18;3.37;;;3.07;;
1507;SDS011;745;48.586;10.032;2023-02-01T07:45:52;2.87;;;2.40;;
1507;SDS011;745;48.586;10.032;2023-02-01T07:50:23;2.63;;;2.40;;
1507;SDS011;745;48.586;10.032;2023-02-01T07:54:54;3.50;;;2.73;;
1507;SDS011;745;48.586;10.032;2023-02-01T07:59:24;3.40;;;2.83;;
1507;SDS011;745;48.586;10.032;2023-02-01T08:03:55;3.50;;;3.10;;
1507;SDS011;745;48.586;10.032;2023-02-01T08:08:27;6.40;;;3.07;;
1507;SDS011;745;48.586;10.032;2023-02-01T08:12:58;3.53;;;2.57;;
1507;SDS011;745;48.586;10.032;2023-02-01T08:17:29;3.70;;;3.00;;
1507;SDS011;745;48.586;10.032;2023-02-01T08:22:00;4.13;;;3.27;;
1507;SDS011;745;48.586;10.032;2023-02-01T08:26:36;2.50;;;2.30;;
1507;SDS011;745;48.586;10.032;2023-02-01T08:31:07;3.03;;;2.70;;
1507;SDS011;745;48.586;10.032;2023-02-01T08:35:39;2.77;;;2.50;;
1507;SDS011;745;48.586;10.032;2023-02-01T08:40:10;3.80;;;2.50;;
1507;SDS011;745;48.586;10.032;2023-02-01T08:44:40;10.83;;;3.43;;
1507;SDS011;745;48.586;10.032;2023-02-01T08:49:11;5.73;;;2.33;;
1507;SDS011;745;48.586;10.032;2023-02-01T08:53:41;3.40;;;3.00;;
1507;SDS011;745;48.586;10.032;2023-02-01T08:58:12;8.40;;;2.73;;
1507;SDS011;745;48.586;10.032;2023-02-01T09:02:44;2.90;;;2.57;;
1507;SDS011;745;48.586;10.032;2023-02-01T09:07:15;3.80;;;2.67;;
1507;SDS011;745;48.586;10.032;2023-02-01T09:11:46;6.20;;;3.40;;
1507;SDS011;745;48.586;10.032;2023-02-01T09:16:17;4.60;;;3.10;;
1507;SDS011;745;48.586;10.032;2023-02-01T09:20:47;6.20;;;2.90;;
1507;SDS011;745;48.586;10.032;2023-02-01T09:25:18;6.37;;;3.10;;
1507;SDS011;745;48.586;10.032;2023-02-01T09:29:48;4.43;;;3.07;;
1507;SDS011;745;48.586;10.032;2023-02-01T09:34:22;7.90;;;3.43;;
1507;SDS011;745;48.586;10.032;2023-02-01T09:38:53;7.50;;;3.97;;
1507;SDS011;745;48.586;10.032;2023-02-01T09:48:21;7.17;;;3.03;;
1507;SDS011;745;48.586;10.032;2023-02-01T09:53:11;3.97;;;2.73;;
1507;SDS011;745;48.586;10.032;2023-02-01T09:57:49;5.00;;;2.70;;
1507;SDS011;745;48.586;10.032;2023-02-01T10:02:25;4.77;;;2.87;;
1507;SDS011;745;48.586;10.032;2023-02-01T10:11:42;4.97;;;3.30;;
1507;SDS011;745;48.586;10.032;2023-02-01T10:16:45;6.00;;;3.57;;
1507;SDS011;745;48.586;10.032;2023-02-01T10:21:43;4.50;;;3.20;;
1507;SDS011;745;48.586;10.032;2023-02-01T10:26:20;5.60;;;3.00;;
1507;SDS011;745;48.586;10.032;2023-02-01T10:30:56;7.07;;;4.20;;
1507;SDS011;745;48.586;10.032;2023-02-01T10:35:29;9.13;;;3.47;;
1507;SDS011;745;48.586;10.032;2023-02-01T10:40:23;5.43;;;3.37;;
1507;SDS011;745;48.586;10.032;2023-02-01T10:44:56;4.37;;;2.97;;
1507;SDS011;745;48.586;10.032;2023-02-01T10:49:32;5.90;;;3.40;;
1507;SDS011;745;48.586;10.032;2023-02-01T10:54:11;5.90;;;3.03;;
1507;SDS011;745;48.586;10.032;2023-02-01T10:58:46;9.90;;;4.83;;
1507;SDS011;745;48.586;10.032;2023-02-01T11:03:30;4.83;;;2.57;;
1507;SDS011;745;48.586;10.032;2023-02-01T11:08:03;8.37;;;3.10;;
1507;SDS011;745;48.586;10.032;2023-02-01T11:12:37;5.17;;;3.07;;
1507;SDS011;745;48.586;10.032;2023-02-01T11:21:48;6.40;;;3.30;;
1507;SDS011;745;48.586;10.032;2023-02-01T11:26:30;5.63;;;2.93;;
1507;SDS011;745;48.586;10.032;2023-02-01T11:31:04;5.40;;;3.13;;
1507;SDS011;745;48.586;10.032;2023-02-01T11:35:40;9.27;;;3.50;;
1507;SDS011;745;48.586;10.032;2023-02-01T11:44:45;6.30;;;3.37;;
1507;SDS011;745;48.586;10.032;2023-02-01T11:49:21;6.83;;;3.40;;
1507;SDS011;745;48.586;10.032;2023-02-01T11:58:58;9.60;;;3.70;;
1507;SDS011;745;48.586;10.032;2023-02-01T12:28:31;5.90;;;2.97;;
1507;SDS011;745;48.586;10.032;2023-02-01T12:38:22;6.50;;;3.53;;
1507;SDS011;745;48.586;10.032;2023-02-01T12:43:10;5.00;;;3.00;;
1507;SDS011;745;48.586;10.032;2023-02-01T12:48:44;7.33;;;3.83;;
1507;SDS011;745;48.586;10.032;2023-02-01T12:53:07;8.73;;;4.43;;
1507;SDS011;745;48.586;10.032;2023-02-01T12:57:43;4.83;;;3.03;;
1507;SDS011;745;48.586;10.032;2023-02-01T13:02:22;7.00;;;3.03;;
1507;SDS011;745;48.586;10.032;2023-02-01T13:07:11;10.60;;;3.73;;
1507;SDS011;745;48.586;10.032;2023-02-01T13:11:43;10.03;;;3.00;;
1507;SDS011;745;48.586;10.032;2023-02-01T13:20:53;9.63;;;4.73;;
1507;SDS011;745;48.586;10.032;2023-02-01T13:25:40;8.93;;;3.70;;
1507;SDS011;745;48.586;10.032;2023-02-01T13:30:23;6.10;;;2.90;;
1507;SDS011;745;48.586;10.032;2023-02-01T13:39:48;6.40;;;3.40;;
1507;SDS011;745;48.586;10.032;2023-02-01T13:44:39;3.60;;;2.73;;
1507;SDS011;745;48.586;10.032;2023-02-01T13:49:18;5.20;;;2.83;;
1507;SDS011;745;48.586;10.032;2023-02-01T13:53:51;3.73;;;2.80;;
1507;SDS011;745;48.586;10.032;2023-02-01T13:58:29;6.33;;;3.73;;
1507;SDS011;745;48.586;10.032;2023-02-01T14:07:31;3.53;;;2.90;;
1507;SDS011;745;48.586;10.032;2023-02-01T14:12:41;5.50;;;3.10;;
1507;SDS011;745;48.586;10.032;2023-02-01T14:21:53;5.82;;;2.90;;
1507;SDS011;745;48.586;10.032;2023-02-01T14:31:14;6.77;;;3.20;;
1507;SDS011;745;48.586;10.032;2023-02-01T14:35:54;5.07;;;2.80;;
1507;SDS011;745;48.586;10.032;2023-02-01T14:40:30;5.50;;;2.73;;
1507;SDS011;745;48.586;10.032;2023-02-01T14:49:56;4.17;;;2.33;;
1507;SDS011;745;48.586;10.032;2023-02-01T14:54:30;3.57;;;2.70;;
1507;SDS011;745;48.586;10.032;2023-02-01T14:59:02;4.80;;;2.60;;
1507;SDS011;745;48.586;10.032;2023-02-01T15:08:33;7.27;;;3.27;;
1507;SDS011;745;48.586;10.032;2023-02-01T15:13:09;7.90;;;3.10;;
1507;SDS011;745;48.586;10.032;2023-02-01T15:18:14;6.20;;;2.60;;
1507;SDS011;745;48.586;10.032;2023-02-01T15:22:54;7.67;;;2.77;;
1507;SDS011;745;48.586;10.032;2023-02-01T15:27:29;4.73;;;2.97;;
1507;SDS011;745;48.586;10.032;2023-02-01T15:32:00;7.27;;;3.10;;
1507;SDS011;745;48.586;10.032;2023-02-01T15:36:30;8.50;;;3.50;;
1507;SDS011;745;48.586;10.032;2023-02-01T15:45:43;5.93;;;3.00;;
1507;SDS011;745;48.586;10.032;2023-02-01T15:50:15;3.03;;;2.37;;
1507;SDS011;745;48.586;10.032;2023-02-01T15:54:47;8.13;;;4.00;;
1507;SDS011;745;48.586;10.032;2023-02-01T15:59:19;8.70;;;3.73;;
1507;SDS011;745;48.586;10.032;2023-02-01T16:04:12;7.57;;;3.70;;
1507;SDS011;745;48.586;10.032;2023-02-01T16:13:29;7.83;;;3.40;;
1507;SDS011;745;48.586;10.032;2023-02-01T16:17:59;5.30;;;3.23;;
1507;SDS011;745;48.586;10.032;2023-02-01T16:22:29;7.87;;;3.17;;
1507;SDS011;745;48.586;10.032;2023-02-01T16:27:00;9.13;;;3.47;;
1507;SDS011;745;48.586;10.032;2023-02-01T16:31:30;6.00;;;3.70;;
1507;SDS011;745;48.586;10.032;2023-02-01T16:36:03;7.07;;;2.63;;
1507;SDS011;745;48.586;10.032;2023-02-01T16:40:34;6.53;;;3.40;;
1507;SDS011;745;48.586;10.032;2023-02-01T16:45:04;7.77;;;4.03;;
1507;SDS011;745;48.586;10.032;2023-02-01T16:49:35;8.13;;;3.17;;
1507;SDS011;745;48.586;10.032;2023-02-01T16:54:07;7.80;;;3.90;;
1507;SDS011;745;48.586;10.032;2023-02-01T16:58:38;9.20;;;4.20;;
1507;SDS011;745;48.586;10.032;2023-02-01T17:03:11;5.10;;;3.83;;
1507;SDS011;745;48.586;10.032;2023-02-01T17:07:46;7.77;;;5.77;;
1507;SDS011;745;48.586;10.032;2023-02-01T17:12:27;6.10;;;3.33;;
1507;SDS011;745;48.586;10.032;2023-02-01T17:16:59;8.43;;;4.27;;
1507;SDS011;745;48.586;10.032;2023-02-01T17:21:39;9.10;;;3.80;;
1507;SDS011;745;48.586;10.032;2023-02-01T17:26:11;11.83;;;3.40;;
1507;SDS011;745;48.586;10.032;2023-02-01T17:30:42;6.80;;;4.00;;
1507;SDS011;745;48.586;10.032;2023-02-01T17:35:23;6.27;;;4.10;;
1507;SDS011;745;48.586;10.032;2023-02-01T17:39:55;6.80;;;3.63;;
1507;SDS011;745;48.586;10.032;2023-02-01T17:44:26;11.13;;;3.70;;
1507;SDS011;745;48.586;10.032;2023-02-01T17:48:56;5.20;;;3.27;;
1507;SDS011;745;48.586;10.032;2023-02-01T17:53:27;7.73;;;3.23;;
1507;SDS011;745;48.586;10.032;2023-02-01T17:57:58;5.60;;;3.77;;
1507;SDS011;745;48.586;10.032;2023-02-01T18:02:28;9.13;;;3.90;;
1507;SDS011;745;48.586;10.032;2023-02-01T18:06:59;16.57;;;6.10;;
1507;SDS011;745;48.586;10.032;2023-02-01T18:11:29;8.00;;;4.60;;
1507;SDS011;745;48.586;10.032;2023-02-01T18:16:02;8.73;;;3.60;;
1507;SDS011;745;48.586;10.032;2023-02-01T18:20:33;8.17;;;3.93;;
1507;SDS011;745;48.586;10.032;2023-02-01T18:25:09;11.47;;;3.90;;
1507;SDS011;745;48.586;10.032;2023-02-01T18:29:52;9.23;;;3.70;;
1507;SDS011;745;48.586;10.032;2023-02-01T18:34:22;11.63;;;3.97;;
1507;SDS011;745;48.586;10.032;2023-02-01T18:38:54;5.57;;;3.80;;
1507;SDS011;745;48.586;10.032;2023-02-01T18:43:26;5.43;;;3.10;;
1507;SDS011;745;48.586;10.032;2023-02-01T18:47:57;10.13;;;3.97;;
1507;SDS011;745;48.586;10.032;2023-02-01T18:52:28;5.70;;;3.13;;
1507;SDS011;745;48.586;10.032;2023-02-01T18:56:59;6.83;;;3.97;;
1507;SDS011;745;48.586;10.032;2023-02-01T19:01:29;8.90;;;3.53;;
1507;SDS011;745;48.586;10.032;2023-02-01T19:05:59;7.73;;;3.60;;
1507;SDS011;745;48.586;10.032;2023-02-01T19:10:30;8.47;;;3.73;;
1507;SDS011;745;48.586;10.032;2023-02-01T19:15:00;9.13;;;3.77;;
1507;SDS011;745;48.586;10.032;2023-02-01T19:19:30;9.53;;;3.93;;
1507;SDS011;745;48.586;10.032;2023-02-01T19:24:01;8.93;;;3.70;;
1507;SDS011;745;48.586;10.032;2023-02-01T19:28:31;6.47;;;2.87;;
1507;SDS011;745;48.586;10.032;2023-02-01T19:33:02;8.30;;;3.40;;
1507;SDS011;745;48.586;10.032;2023-02-01T19:37:33;9.53;;;3.30;;
1507;SDS011;745;48.586;10.032;2023-02-01T19:42:04;5.27;;;3.47;;
1507;SDS011;745;48.586;10.032;2023-02-01T19:46:34;12.03;;;3.50;;
1507;SDS011;745;48.586;10.032;2023-02-01T19:51:05;7.50;;;3.23;;
1507;SDS011;745;48.586;10.032;2023-02-01T19:55:35;7.40;;;3.97;;
1507;SDS011;745;48.586;10.032;2023-02-01T20:00:06;6.70;;;3.00;;
1507;SDS011;745;48.586;10.032;2023-02-01T20:04:40;8.13;;;2.90;;
1507;SDS011;745;48.586;10.032;2023-02-01T20:09:11;8.37;;;3.50;;
1507;SDS011;745;48.586;10.032;2023-02-01T20:13:41;19.10;;;3.50;;
1507;SDS011;745;48.586;10.032;2023-02-01T20:18:12;4.53;;;2.60;;
1507;SDS011;745;48.586;10.032;2023-02-01T20:22:42;6.90;;;2.87;;
1507;SDS011;745;48.586;10.032;2023-02-01T20:27:15;9.03;;;3.10;;
1507;SDS011;745;48.586;10.032;2023-02-01T20:31:46;6.60;;;2.93;;
1507;SDS011;745;48.586;10.032;2023-02-01T20:36:16;4.20;;;2.40;;
1507;SDS011;745;48.586;10.032;2023-02-01T20:40:47;4.97;;;2.77;;
1507;SDS011;745;48.586;10.032;2023-02-01T20:45:18;4.37;;;2.33;;
1507;SDS011;745;48.586;10.032;2023-02-01T20:49:48;5.67;;;3.00;;
1507;SDS011;745;48.586;10.032;2023-02-01T20:54:19;7.00;;;3.00;;
1507;SDS011;745;48.586;10.032;2023-02-01T20:58:49;5.20;;;3.30;;
1507;SDS011;745;48.586;10.032;2023-02-01T21:03:19;5.47;;;2.90;;
1507;SDS011;745;48.586;10.032;2023-02-01T21:07:50;10.93;;;3.57;;
1507;SDS011;745;48.586;10.032;2023-02-01T21:12:22;6.33;;;3.13;;
1507;SDS011;745;48.586;10.032;2023-02-01T21:16:52;6.97;;;3.17;;
1507;SDS011;745;48.586;10.032;2023-02-01T21:21:22;8.40;;;3.20;;
1507;SDS011;745;48.586;10.032;2023-02-01T21:25:53;8.77;;;3.40;;
1507;SDS011;745;48.586;10.032;2023-02-01T21:30:23;7.83;;;3.37;;
1507;SDS011;745;48.586;10.032;2023-02-01T21:34:53;5.50;;;2.97;;
1507;SDS011;745;48.586;10.032;2023-02-01T21:39:24;13.73;;;3.50;;
1507;SDS011;745;48.586;10.032;2023-02-01T21:43:56;11.00;;;3.40;;
1507;SDS011;745;48.586;10.032;2023-02-01T21:48:27;6.50;;;3.23;;
1507;SDS011;745;48.586;10.032;2023-02-01T21:52:57;9.00;;;3.80;;
1507;SDS011;745;48.586;10.032;2023-02-01T21:57:28;11.30;;;3.67;;
1507;SDS011;745;48.586;10.032;2023-02-01T22:01:58;6.00;;;3.10;;
1507;SDS011;745;48.586;10.032;2023-02-01T22:06:30;7.10;;;3.23;;
1507;SDS011;745;48.586;10.032;2023-02-01T22:11:01;5.73;;;3.50;;
1507;SDS011;745;48.586;10.032;2023-02-01T22:15:32;9.20;;;4.43;;
1507;SDS011;745;48.586;10.032;2023-02-01T22:20:03;12.47;;;4.03;;
1507;SDS011;745;48.586;10.032;2023-02-01T22:24:34;11.00;;;3.40;;
1507;SDS011;745;48.586;10.032;2023-02-01T22:29:06;7.30;;;3.43;;
1507;SDS011;745;48.586;10.032;2023-02-01T22:33:37;7.33;;;3.80;;
1507;SDS011;745;48.586;10.032;2023-02-01T22:38:08;3.63;;;2.60;;
1507;SDS011;745;48.586;10.032;2023-02-01T22:42:38;9.33;;;3.67;;
1507;SDS011;745;48.586;10.032;2023-02-01T22:47:09;8.00;;;3.30;;
1507;SDS011;745;48.586;10.032;2023-02-01T22:51:39;5.03;;;3.57;;
1507;SDS011;745;48.586;10.032;2023-02-01T22:56:10;6.90;;;3.40;;
1507;SDS011;745;48.586;10.032;2023-02-01T23:00:41;7.27;;;4.07;;
1507;SDS011;745;48.586;10.032;2023-02-01T23:05:12;13.87;;;3.87;;
1507;SDS011;745;48.586;10.032;2023-02-01T23:09:42;12.73;;;3.93;;
1507;SDS011;745;48.586;10.032;2023-02-01T23:14:13;5.03;;;3.10;;
1507;SDS011;745;48.586;10.032;2023-02-01T23:18:44;5.63;;;3.40;;
1507;SDS011;745;48.586;10.032;2023-02-01T23:23:14;15.77;;;3.70;;
1507;SDS011;745;48.586;10.032;2023-02-01T23:27:45;4.63;;;3.03;;
1507;SDS011;745;48.586;10.032;2023-02-01T23:32:16;7.80;;;3.00;;
1507;SDS011;745;48.586;10.032;2023-02-01T23:36:47;9.70;;;3.90;;
1507;SDS011;745;48.586;10.032;2023-02-01T23:41:18;10.40;;;3.80;;
1507;SDS011;745;48.586;10.032;2023-02-01T23:45:49;7.30;;;3.50;;
1507;SDS011;745;48.586;10.032;2023-02-01T23:50:19;12.20;;;4.03;;
1507;SDS011;745;48.586;10.032;2023-02-01T23:54:50;5.63;;;3.50;;
1507;SDS011;745;48.586;10.032;2023-02-01T23:59:20;8.90;;;3.93;;
